sensor_id;sensor_type;location;lat;lon;timestamp;pressure;altitude;pressure_sealevel;temperature;humidity
63739;BME280;68816;45.558;10.070;2023-05-02T00:01:44;99775.13;;;14.54;80.40
63739;BME280;68816;45.558;10.070;2023-05-02T00:04:09;99772.09;;;14.61;79.92
63739;BME280;68816;45.558;10.070;2023-05-02T00:06:35;99757.56;;;14.49;81.14
63739;BME280;68816;45.558;10.070;2023-05-02T00:09:00;99769.59;;;14.64;80.12
63739;BME280;68816;45.558;10.070;2023-05-02T00:11:26;99783.88;;;14.73;79.40
63739;BME280;68816;45.558;10.070;2023-05-02T00:13:51;99780.16;;;14.62;79.73
63739;BME280;68816;45.558;10.070;2023-05-02T00:16:17;99773.25;;;14.70;79.55
63739;BME280;68816;45.558;10.070;2023-05-02T00:18:42;99767.66;;;14.65;79.14
63739;BME280;68816;45.558;10.070;2023-05-02T00:21:08;99764.28;;;14.63;78.50
63739;BME280;68816;45.558;10.070;2023-05-02T00:23:33;99759.31;;;14.65;78.86
63739;BME280;68816;45.558;10.070;2023-05-02T00:25:59;99758.75;;;14.68;79.34
63739;BME280;68816;45.558;10.070;2023-05-02T00:28:25;99758.22;;;14.66;79.15
63739;BME280;68816;45.558;10.070;2023-05-02T00:30:51;99751.75;;;14.55;79.77
63739;BME280;68816;45.558;10.070;2023-05-02T00:33:17;99742.00;;;14.58;78.93
63739;BME280;68816;45.558;10.070;2023-05-02T00:35:42;99730.03;;;14.52;79.41
63739;BME280;68816;45.558;10.070;2023-05-02T00:38:08;99728.03;;;14.43;79.35
63739;BME280;68816;45.558;10.070;2023-05-02T00:40:46;99722.97;;;14.39;78.99
63739;BME280;68816;45.558;10.070;2023-05-02T00:43:13;99719.09;;;14.41;79.60
63739;BME280;68816;45.558;10.070;2023-05-02T00:45:41;99713.53;;;14.41;79.32
63739;BME280;68816;45.558;10.070;2023-05-02T00:48:08;99699.53;;;14.30;79.50
63739;BME280;68816;45.558;10.070;2023-05-02T00:50:41;99700.72;;;14.39;79.57
63739;BME280;68816;45.558;10.070;2023-05-02T00:53:07;99697.88;;;14.34;78.72
63739;BME280;68816;45.558;10.070;2023-05-02T00:55:33;99699.56;;;14.35;79.49
63739;BME280;68816;45.558;10.070;2023-05-02T00:58:03;99697.41;;;14.37;79.38
63739;BME280;68816;45.558;10.070;2023-05-02T01:01:07;99689.28;;;14.36;79.66
63739;BME280;68816;45.558;10.070;2023-05-02T01:07:17;99689.53;;;14.34;79.21
63739;BME280;68816;45.558;10.070;2023-05-02T01:09:47;99684.63;;;14.42;79.51
63739;BME280;68816;45.558;10.070;2023-05-02T01:12:27;99682.31;;;14.33;78.75
63739;BME280;68816;45.558;10.070;2023-05-02T01:14:57;99683.19;;;14.39;78.14
63739;BME280;68816;45.558;10.070;2023-05-02T01:17:29;99666.97;;;14.26;78.76
63739;BME280;68816;45.558;10.070;2023-05-02T01:20:05;99669.47;;;14.27;79.47
63739;BME280;68816;45.558;10.070;2023-05-02T01:22:33;99669.59;;;14.37;78.73
63739;BME280;68816;45.558;10.070;2023-05-02T01:28:00;99679.75;;;14.27;78.79
63739;BME280;68816;45.558;10.070;2023-05-02T01:30:30;99672.00;;;14.29;77.76
63739;BME280;68816;45.558;10.070;2023-05-02T01:32:58;99679.75;;;14.27;79.37
63739;BME280;68816;45.558;10.070;2023-05-02T01:35:25;99681.19;;;14.29;78.28
63739;BME280;68816;45.558;10.070;2023-05-02T01:37:51;99680.31;;;14.24;78.87
63739;BME280;68816;45.558;10.070;2023-05-02T01:40:19;99686.22;;;14.32;77.58
63739;BME280;68816;45.558;10.070;2023-05-02T01:42:49;99686.28;;;14.37;78.88
63739;BME280;68816;45.558;10.070;2023-05-02T01:45:15;99680.16;;;14.41;77.97
63739;BME280;68816;45.558;10.070;2023-05-02T01:47:42;99673.44;;;14.36;78.43
63739;BME280;68816;45.558;10.070;2023-05-02T01:50:10;99690.47;;;14.45;78.88
63739;BME280;68816;45.558;10.070;2023-05-02T01:52:39;99694.63;;;14.43;78.84
63739;BME280;68816;45.558;10.070;2023-05-02T01:55:08;99699.66;;;14.46;78.57
63739;BME280;68816;45.558;10.070;2023-05-02T01:57:38;99690.47;;;14.45;78.71
63739;BME280;68816;45.558;10.070;2023-05-02T02:00:06;99700.66;;;14.34;79.59
63739;BME280;68816;45.558;10.070;2023-05-02T02:02:34;99702.41;;;14.41;79.35
63739;BME280;68816;45.558;10.070;2023-05-02T02:05:03;99695.75;;;14.47;78.56
63739;BME280;68816;45.558;10.070;2023-05-02T02:07:30;99701.88;;;14.44;79.22
63739;BME280;68816;45.558;10.070;2023-05-02T02:09:56;99704.09;;;14.42;79.06
63739;BME280;68816;45.558;10.070;2023-05-02T02:12:25;99706.06;;;14.46;78.73
63739;BME280;68816;45.558;10.070;2023-05-02T02:15:24;99696.59;;;14.47;79.71
63739;BME280;68816;45.558;10.070;2023-05-02T02:18:01;99689.06;;;14.43;79.14
63739;BME280;68816;45.558;10.070;2023-05-02T02:20:30;99694.94;;;14.46;78.21
63739;BME280;68816;45.558;10.070;2023-05-02T02:22:58;99702.16;;;14.47;78.78
63739;BME280;68816;45.558;10.070;2023-05-02T02:25:25;99700.22;;;14.43;79.11
63739;BME280;68816;45.558;10.070;2023-05-02T02:27:52;99697.47;;;14.53;79.15
63739;BME280;68816;45.558;10.070;2023-05-02T02:30:17;99696.75;;;14.30;80.16
63739;BME280;68816;45.558;10.070;2023-05-02T02:32:43;99708.56;;;14.48;78.71
63739;BME280;68816;45.558;10.070;2023-05-02T02:35:09;99703.84;;;14.48;78.64
63739;BME280;68816;45.558;10.070;2023-05-02T02:37:51;99701.88;;;14.44;79.02
63739;BME280;68816;45.558;10.070;2023-05-02T02:40:42;99699.38;;;14.47;79.86
63739;BME280;68816;45.558;10.070;2023-05-02T02:43:23;99709.19;;;14.55;78.39
63739;BME280;68816;45.558;10.070;2023-05-02T02:48:36;99708.53;;;14.37;80.35
63739;BME280;68816;45.558;10.070;2023-05-02T02:56:27;99718.38;;;14.60;79.23
63739;BME280;68816;45.558;10.070;2023-05-02T02:58:59;99708.56;;;14.48;79.58
63739;BME280;68816;45.558;10.070;2023-05-02T03:01:30;99716.31;;;14.41;79.40
63739;BME280;68816;45.558;10.070;2023-05-02T03:03:57;99704.59;;;14.38;79.32
63739;BME280;68816;45.558;10.070;2023-05-02T03:06:22;99712.97;;;14.38;80.12
63739;BME280;68816;45.558;10.070;2023-05-02T03:08:48;99720.97;;;14.35;79.63
63739;BME280;68816;45.558;10.070;2023-05-02T03:11:14;99717.53;;;14.18;80.25
63739;BME280;68816;45.558;10.070;2023-05-02T03:13:40;99713.69;;;14.24;80.21
63739;BME280;68816;45.558;10.070;2023-05-02T03:16:34;99714.38;;;14.04;80.96
63739;BME280;68816;45.558;10.070;2023-05-02T03:19:00;99697.75;;;14.09;81.26
63739;BME280;68816;45.558;10.070;2023-05-02T03:21:26;99697.16;;;14.07;81.66
63739;BME280;68816;45.558;10.070;2023-05-02T03:23:52;99706.09;;;14.09;81.29
63739;BME280;68816;45.558;10.070;2023-05-02T03:26:17;99694.44;;;14.17;81.67
63739;BME280;68816;45.558;10.070;2023-05-02T03:28:43;99708.38;;;14.22;80.70
63739;BME280;68816;45.558;10.070;2023-05-02T03:31:12;99709.81;;;14.25;81.17
63739;BME280;68816;45.558;10.070;2023-05-02T03:33:38;99710.91;;;14.24;81.23
63739;BME280;68816;45.558;10.070;2023-05-02T03:36:04;99711.78;;;14.29;80.34
63739;BME280;68816;45.558;10.070;2023-05-02T03:38:30;99711.25;;;14.32;81.34
63739;BME280;68816;45.558;10.070;2023-05-02T03:40:58;99707.69;;;14.37;79.89
63739;BME280;68816;45.558;10.070;2023-05-02T03:43:24;99708.63;;;14.16;80.63
63739;BME280;68816;45.558;10.070;2023-05-02T03:45:49;99718.97;;;14.20;80.90
63739;BME280;68816;45.558;10.070;2023-05-02T03:48:15;99709.44;;;14.16;80.62
63739;BME280;68816;45.558;10.070;2023-05-02T03:50:40;99713.03;;;14.12;82.14
63739;BME280;68816;45.558;10.070;2023-05-02T03:53:06;99707.53;;;14.22;81.48
63739;BME280;68816;45.558;10.070;2023-05-02T03:55:32;99716.66;;;14.12;81.01
63739;BME280;68816;45.558;10.070;2023-05-02T03:57:58;99714.25;;;14.21;81.92
63739;BME280;68816;45.558;10.070;2023-05-02T04:00:23;99711.69;;;14.14;81.31
63739;BME280;68816;45.558;10.070;2023-05-02T04:02:49;99721.13;;;14.13;81.13
63739;BME280;68816;45.558;10.070;2023-05-02T04:05:14;99719.78;;;14.21;81.21
63739;BME280;68816;45.558;10.070;2023-05-02T04:07:40;99717.50;;;14.13;81.55
63739;BME280;68816;45.558;10.070;2023-05-02T04:10:06;99715.59;;;14.18;81.04
63739;BME280;68816;45.558;10.070;2023-05-02T04:12:32;99715.03;;;14.21;81.01
63739;BME280;68816;45.558;10.070;2023-05-02T04:14:57;99719.22;;;14.19;81.17
63739;BME280;68816;45.558;10.070;2023-05-02T04:17:23;99723.34;;;14.16;81.01
63739;BME280;68816;45.558;10.070;2023-05-02T04:19:48;99710.03;;;14.18;81.36
63739;BME280;68816;45.558;10.070;2023-05-02T04:22:14;99722.59;;;14.26;80.98
63739;BME280;68816;45.558;10.070;2023-05-02T04:24:39;99720.88;;;14.15;80.96
63739;BME280;68816;45.558;10.070;2023-05-02T04:27:05;99737.84;;;14.18;81.21
63739;BME280;68816;45.558;10.070;2023-05-02T04:29:30;99721.75;;;14.20;81.64
63739;BME280;68816;45.558;10.070;2023-05-02T04:31:56;99725.38;;;14.26;81.89
63739;BME280;68816;45.558;10.070;2023-05-02T04:34:21;99727.09;;;14.32;80.72
63739;BME280;68816;45.558;10.070;2023-05-02T04:36:47;99729.59;;;14.33;80.44
63739;BME280;68816;45.558;10.070;2023-05-02T04:39:12;99729.03;;;14.31;80.63
63739;BME280;68816;45.558;10.070;2023-05-02T04:41:38;99740.44;;;14.30;80.95
63739;BME280;68816;45.558;10.070;2023-05-02T04:44:04;99737.38;;;14.31;80.87
63739;BME280;68816;45.558;10.070;2023-05-02T04:46:30;99740.41;;;14.25;80.67
63739;BME280;68816;45.558;10.070;2023-05-02T04:49:14;99753.75;;;14.28;81.90
63739;BME280;68816;45.558;10.070;2023-05-02T04:51:40;99751.31;;;14.36;79.88
63739;BME280;68816;45.558;10.070;2023-05-02T04:54:05;99754.63;;;14.33;81.40
63739;BME280;68816;45.558;10.070;2023-05-02T04:56:31;99751.56;;;14.30;80.65
63739;BME280;68816;45.558;10.070;2023-05-02T04:58:56;99752.69;;;14.34;80.51
63739;BME280;68816;45.558;10.070;2023-05-02T05:01:23;99761.00;;;14.29;81.26
63739;BME280;68816;45.558;10.070;2023-05-02T05:03:48;99754.69;;;14.38;79.89
63739;BME280;68816;45.558;10.070;2023-05-02T05:06:14;99767.00;;;14.48;80.11
63739;BME280;68816;45.558;10.070;2023-05-02T05:08:40;99767.03;;;14.53;80.09
63739;BME280;68816;45.558;10.070;2023-05-02T05:11:05;99769.81;;;14.53;79.96
63739;BME280;68816;45.558;10.070;2023-05-02T05:13:31;99763.81;;;14.34;80.60
63739;BME280;68816;45.558;10.070;2023-05-02T05:15:56;99766.41;;;14.46;80.86
63739;BME280;68816;45.558;10.070;2023-05-02T05:18:22;99773.72;;;14.57;80.37
63739;BME280;68816;45.558;10.070;2023-05-02T05:20:48;99777.28;;;14.47;81.08
63739;BME280;68816;45.558;10.070;2023-05-02T05:23:13;99770.69;;;14.58;80.14
63739;BME280;68816;45.558;10.070;2023-05-02T05:25:39;99775.41;;;14.58;79.93
63739;BME280;68816;45.558;10.070;2023-05-02T05:28:05;99773.22;;;14.65;79.51
63739;BME280;68816;45.558;10.070;2023-05-02T05:30:30;99774.91;;;14.66;79.67
63739;BME280;68816;45.558;10.070;2023-05-02T05:32:56;99778.78;;;14.60;79.38
63739;BME280;68816;45.558;10.070;2023-05-02T05:35:23;99789.94;;;14.70;80.75
63739;BME280;68816;45.558;10.070;2023-05-02T05:37:49;99787.78;;;14.82;80.21
63739;BME280;68816;45.558;10.070;2023-05-02T05:40:15;99785.88;;;14.88;79.20
63739;BME280;68816;45.558;10.070;2023-05-02T05:42:41;99786.72;;;14.93;79.27
63739;BME280;68816;45.558;10.070;2023-05-02T05:45:07;99776.78;;;15.02;79.97
63739;BME280;68816;45.558;10.070;2023-05-02T05:47:33;99779.84;;;15.06;78.43
63739;BME280;68816;45.558;10.070;2023-05-02T05:49:59;99783.47;;;15.06;78.22
63739;BME280;68816;45.558;10.070;2023-05-02T05:52:24;99786.78;;;15.08;78.10
63739;BME280;68816;45.558;10.070;2023-05-02T05:54:53;99784.56;;;15.05;77.32
63739;BME280;68816;45.558;10.070;2023-05-02T05:57:22;99772.31;;;15.06;78.14
63739;BME280;68816;45.558;10.070;2023-05-02T05:59:48;99777.91;;;15.11;79.64
63739;BME280;68816;45.558;10.070;2023-05-02T06:02:13;99774.03;;;15.12;79.31
63739;BME280;68816;45.558;10.070;2023-05-02T06:04:39;99771.81;;;15.19;77.78
63739;BME280;68816;45.558;10.070;2023-05-02T06:07:05;99787.94;;;15.12;76.79
63739;BME280;68816;45.558;10.070;2023-05-02T06:09:31;99775.72;;;15.24;77.96
63739;BME280;68816;45.558;10.070;2023-05-02T06:11:56;99782.41;;;15.28;79.88
63739;BME280;68816;45.558;10.070;2023-05-02T06:14:21;99785.50;;;15.31;78.45
63739;BME280;68816;45.558;10.070;2023-05-02T06:16:47;99792.78;;;15.42;78.09
63739;BME280;68816;45.558;10.070;2023-05-02T06:19:12;99788.59;;;15.40;78.53
63739;BME280;68816;45.558;10.070;2023-05-02T06:21:39;99791.47;;;15.55;77.81
63739;BME280;68816;45.558;10.070;2023-05-02T06:24:05;99795.13;;;15.71;78.02
63739;BME280;68816;45.558;10.070;2023-05-02T06:26:30;99800.44;;;15.77;77.07
63739;BME280;68816;45.558;10.070;2023-05-02T06:28:56;99796.81;;;15.82;77.93
63739;BME280;68816;45.558;10.070;2023-05-02T06:31:21;99795.97;;;15.96;76.20
63739;BME280;68816;45.558;10.070;2023-05-02T06:33:47;99809.38;;;15.89;74.75
63739;BME280;68816;45.558;10.070;2023-05-02T06:36:12;99801.28;;;15.93;74.26
63739;BME280;68816;45.558;10.070;2023-05-02T06:38:38;99813.84;;;15.95;76.73
63739;BME280;68816;45.558;10.070;2023-05-02T06:41:03;99811.88;;;15.91;74.53
63739;BME280;68816;45.558;10.070;2023-05-02T06:43:29;99811.31;;;15.94;73.54
63739;BME280;68816;45.558;10.070;2023-05-02T06:45:54;99810.22;;;16.10;72.56
63739;BME280;68816;45.558;10.070;2023-05-02T06:48:23;99813.31;;;16.19;72.45
63739;BME280;68816;45.558;10.070;2023-05-02T06:50:50;99816.09;;;16.24;73.45
63739;BME280;68816;45.558;10.070;2023-05-02T06:53:16;99824.44;;;16.44;72.70
63739;BME280;68816;45.558;10.070;2023-05-02T06:55:42;99825.81;;;16.57;75.30
63739;BME280;68816;45.558;10.070;2023-05-02T06:58:08;99821.09;;;16.62;73.97
63739;BME280;68816;45.558;10.070;2023-05-02T07:00:33;99823.06;;;16.62;70.51
63739;BME280;68816;45.558;10.070;2023-05-02T07:02:59;99820.50;;;16.55;70.66
63739;BME280;68816;45.558;10.070;2023-05-02T07:05:24;99824.16;;;16.46;70.69
63739;BME280;68816;45.558;10.070;2023-05-02T07:07:50;99826.94;;;16.51;72.10
63739;BME280;68816;45.558;10.070;2023-05-02T07:10:15;99828.34;;;16.53;71.58
63739;BME280;68816;45.558;10.070;2023-05-02T07:12:41;99831.69;;;16.50;72.03
63739;BME280;68816;45.558;10.070;2023-05-02T07:15:07;99822.78;;;16.53;73.33
63739;BME280;68816;45.558;10.070;2023-05-02T07:17:32;99838.69;;;16.63;73.00
63739;BME280;68816;45.558;10.070;2023-05-02T07:19:58;99841.75;;;16.76;74.96
63739;BME280;68816;45.558;10.070;2023-05-02T07:22:23;99837.25;;;16.91;72.22
63739;BME280;68816;45.558;10.070;2023-05-02T07:24:56;99842.56;;;16.92;71.10
63739;BME280;68816;45.558;10.070;2023-05-02T07:27:22;99843.97;;;16.84;69.29
63739;BME280;68816;45.558;10.070;2023-05-02T07:29:48;99841.75;;;16.76;68.89
63739;BME280;68816;45.558;10.070;2023-05-02T07:32:16;99840.06;;;16.75;70.89
63739;BME280;68816;45.558;10.070;2023-05-02T07:37:12;99792.88;;;16.74;69.21
63739;BME280;68816;45.558;10.070;2023-05-02T07:46:24;99803.69;;;17.06;69.29
63739;BME280;68816;45.558;10.070;2023-05-02T07:48:54;99820.97;;;17.13;66.69
63739;BME280;68816;45.558;10.070;2023-05-02T07:51:40;99787.53;;;16.88;67.85
63739;BME280;68816;45.558;10.070;2023-05-02T07:54:24;99804.53;;;17.06;70.35
63739;BME280;68816;45.558;10.070;2023-05-02T07:57:13;99784.81;;;16.62;68.28
63739;BME280;68816;45.558;10.070;2023-05-02T07:59:45;99786.47;;;16.73;68.29
63739;BME280;68816;45.558;10.070;2023-05-02T08:05:32;99831.44;;;16.77;69.77
63739;BME280;68816;45.558;10.070;2023-05-02T08:08:00;99831.06;;;17.04;68.25
63739;BME280;68816;45.558;10.070;2023-05-02T08:10:47;99873.25;;;17.02;67.10
63739;BME280;68816;45.558;10.070;2023-05-02T08:13:20;99875.38;;;17.36;65.92
63739;BME280;68816;45.558;10.070;2023-05-02T08:15:52;99870.00;;;17.54;66.15
63739;BME280;68816;45.558;10.070;2023-05-02T08:18:23;99875.03;;;17.62;65.21
63739;BME280;68816;45.558;10.070;2023-05-02T08:20:49;99884.13;;;17.14;65.25
63739;BME280;68816;45.558;10.070;2023-05-02T08:23:15;99874.63;;;17.15;66.89
63739;BME280;68816;45.558;10.070;2023-05-02T08:25:41;99858.72;;;17.10;65.40
63739;BME280;68816;45.558;10.070;2023-05-02T08:28:06;99885.13;;;17.48;64.89
63739;BME280;68816;45.558;10.070;2023-05-02T08:30:32;99879.59;;;17.38;63.14
63739;BME280;68816;45.558;10.070;2023-05-02T08:32:58;99889.56;;;17.59;65.30
63739;BME280;68816;45.558;10.070;2023-05-02T08:35:24;99881.13;;;17.75;62.36
63739;BME280;68816;45.558;10.070;2023-05-02T08:37:49;99892.84;;;17.77;64.33
63739;BME280;68816;45.558;10.070;2023-05-02T08:40:16;99887.25;;;17.82;62.90
63739;BME280;68816;45.558;10.070;2023-05-02T08:45:58;99883.00;;;17.89;61.30
63739;BME280;68816;45.558;10.070;2023-05-02T08:48:26;99897.38;;;17.68;61.86
63739;BME280;68816;45.558;10.070;2023-05-02T08:50:52;99906.59;;;17.73;59.34
63739;BME280;68816;45.558;10.070;2023-05-02T08:53:19;99910.75;;;17.81;63.07
63739;BME280;68816;45.558;10.070;2023-05-02T08:55:45;99901.25;;;17.82;61.98
63739;BME280;68816;45.558;10.070;2023-05-02T08:58:12;99912.44;;;17.77;60.42
63739;BME280;68816;45.558;10.070;2023-05-02T09:00:38;99923.94;;;17.75;59.52
63739;BME280;68816;45.558;10.070;2023-05-02T09:05:54;99915.56;;;17.55;61.17
63739;BME280;68816;45.558;10.070;2023-05-02T09:08:24;99909.13;;;17.59;61.81
63739;BME280;68816;45.558;10.070;2023-05-02T09:10:51;99917.50;;;17.59;61.64
63739;BME280;68816;45.558;10.070;2023-05-02T09:13:35;99927.59;;;17.65;64.18
63739;BME280;68816;45.558;10.070;2023-05-02T09:16:04;99912.81;;;17.45;61.21
63739;BME280;68816;45.558;10.070;2023-05-02T09:18:33;99922.28;;;17.54;61.46
63739;BME280;68816;45.558;10.070;2023-05-02T09:21:01;99921.50;;;17.38;62.48
63739;BME280;68816;45.558;10.070;2023-05-02T09:23:34;99933.28;;;17.35;64.47
63739;BME280;68816;45.558;10.070;2023-05-02T09:26:00;99920.44;;;17.29;65.16
63739;BME280;68816;45.558;10.070;2023-05-02T09:28:40;99925.47;;;17.27;64.75
63739;BME280;68816;45.558;10.070;2023-05-02T09:31:12;99923.84;;;17.06;64.33
63739;BME280;68816;45.558;10.070;2023-05-02T09:33:38;99924.97;;;17.00;64.95
63739;BME280;68816;45.558;10.070;2023-05-02T09:36:05;99935.00;;;17.16;63.61
63739;BME280;68816;45.558;10.070;2023-05-02T09:38:32;99934.38;;;17.34;64.18
63739;BME280;68816;45.558;10.070;2023-05-02T09:40:59;99935.25;;;17.30;66.52
63739;BME280;68816;45.558;10.070;2023-05-02T09:43:25;99938.63;;;17.11;65.12
63739;BME280;68816;45.558;10.070;2023-05-02T09:45:59;99939.19;;;17.08;64.99
63739;BME280;68816;45.558;10.070;2023-05-02T09:48:29;99944.16;;;17.32;64.48
63739;BME280;68816;45.558;10.070;2023-05-02T09:50:55;99935.50;;;17.38;65.94
63739;BME280;68816;45.558;10.070;2023-05-02T09:53:23;99943.63;;;17.19;64.81
63739;BME280;68816;45.558;10.070;2023-05-02T09:56:03;99940.28;;;17.12;65.40
63739;BME280;68816;45.558;10.070;2023-05-02T09:58:28;99943.91;;;17.28;65.88
63739;BME280;68816;45.558;10.070;2023-05-02T10:00:57;99940.00;;;17.29;66.00
63739;BME280;68816;45.558;10.070;2023-05-02T10:03:25;99935.56;;;17.18;65.68
63739;BME280;68816;45.558;10.070;2023-05-02T10:05:51;99941.66;;;17.35;66.24
63739;BME280;68816;45.558;10.070;2023-05-02T10:08:19;99946.69;;;17.33;65.52
63739;BME280;68816;45.558;10.070;2023-05-02T10:10:55;99932.44;;;17.24;66.33
63739;BME280;68816;45.558;10.070;2023-05-02T10:13:24;99938.31;;;17.28;66.48
63739;BME280;68816;45.558;10.070;2023-05-02T10:16:05;99947.03;;;17.06;66.64
63739;BME280;68816;45.558;10.070;2023-05-02T10:19:11;99944.75;;;17.08;66.24
63739;BME280;68816;45.558;10.070;2023-05-02T10:21:35;99940.59;;;17.11;64.92
63739;BME280;68816;45.558;10.070;2023-05-02T10:24:02;99933.31;;;16.90;65.33
63739;BME280;68816;45.558;10.070;2023-05-02T10:26:29;99937.22;;;17.04;65.04
63739;BME280;68816;45.558;10.070;2023-05-02T10:28:56;99941.72;;;17.05;64.91
63739;BME280;68816;45.558;10.070;2023-05-02T10:31:22;99938.91;;;17.05;66.01
63739;BME280;68816;45.558;10.070;2023-05-02T10:33:50;99936.97;;;17.05;67.14
63739;BME280;68816;45.558;10.070;2023-05-02T10:36:20;99941.97;;;17.13;67.32
63739;BME280;68816;45.558;10.070;2023-05-02T10:38:47;99940.00;;;17.14;65.53
63739;BME280;68816;45.558;10.070;2023-05-02T10:41:21;99930.50;;;17.15;66.65
63739;BME280;68816;45.558;10.070;2023-05-02T10:43:48;99936.94;;;17.10;65.88
63739;BME280;68816;45.558;10.070;2023-05-02T10:46:34;99934.41;;;17.14;66.63
63739;BME280;68816;45.558;10.070;2023-05-02T10:49:02;99946.16;;;17.01;66.17
63739;BME280;68816;45.558;10.070;2023-05-02T10:51:28;99943.09;;;17.17;66.44
63739;BME280;68816;45.558;10.070;2023-05-02T10:59:38;99936.94;;;17.20;64.50
63739;BME280;68816;45.558;10.070;2023-05-02T11:05:07;99947.25;;;17.25;63.23
63739;BME280;68816;45.558;10.070;2023-05-02T11:07:34;99950.56;;;17.42;63.93
63739;BME280;68816;45.558;10.070;2023-05-02T11:12:57;99948.28;;;17.54;62.67
63739;BME280;68816;45.558;10.070;2023-05-02T11:18:05;99943.84;;;17.48;63.79
63739;BME280;68816;45.558;10.070;2023-05-02T11:20:37;99941.31;;;17.62;63.57
63739;BME280;68816;45.558;10.070;2023-05-02T11:25:43;99939.28;;;17.88;63.28
63739;BME280;68816;45.558;10.070;2023-05-02T11:31:01;99942.69;;;17.75;63.09
63739;BME280;68816;45.558;10.070;2023-05-02T11:33:28;99947.06;;;17.91;62.31
63739;BME280;68816;45.558;10.070;2023-05-02T11:35:53;99945.09;;;17.96;61.97
63739;BME280;68816;45.558;10.070;2023-05-02T11:38:21;99954.03;;;17.98;61.44
63739;BME280;68816;45.558;10.070;2023-05-02T11:40:55;99943.03;;;18.12;62.43
63739;BME280;68816;45.558;10.070;2023-05-02T11:43:21;99939.28;;;17.88;61.65
63739;BME280;68816;45.558;10.070;2023-05-02T11:45:47;99938.72;;;17.86;61.21
63739;BME280;68816;45.558;10.070;2023-05-02T11:48:15;99943.13;;;17.97;61.47
63739;BME280;68816;45.558;10.070;2023-05-02T11:53:10;99938.94;;;17.99;61.50
63739;BME280;68816;45.558;10.070;2023-05-02T11:55:36;99933.63;;;17.98;58.39
63739;BME280;68816;45.558;10.070;2023-05-02T11:58:02;99944.56;;;17.89;60.45
63739;BME280;68816;45.558;10.070;2023-05-02T12:00:27;99953.38;;;18.12;58.53
63739;BME280;68816;45.558;10.070;2023-05-02T12:02:53;99948.94;;;18.05;58.38
63739;BME280;68816;45.558;10.070;2023-05-02T12:05:27;99954.97;;;18.33;57.85
63739;BME280;68816;45.558;10.070;2023-05-02T12:07:56;99948.06;;;18.15;58.39
63739;BME280;68816;45.558;10.070;2023-05-02T12:10:22;99944.59;;;18.33;57.97
63739;BME280;68816;45.558;10.070;2023-05-02T12:12:48;99956.25;;;18.56;56.18
63739;BME280;68816;45.558;10.070;2023-05-02T12:15:14;99939.34;;;18.66;56.02
63739;BME280;68816;45.558;10.070;2023-05-02T12:17:41;99953.69;;;18.93;55.65
63739;BME280;68816;45.558;10.070;2023-05-02T12:20:10;99939.06;;;19.01;55.19
63739;BME280;68816;45.558;10.070;2023-05-02T12:22:36;99959.00;;;19.23;53.70
63739;BME280;68816;45.558;10.070;2023-05-02T12:25:03;99963.59;;;19.43;54.96
63739;BME280;68816;45.558;10.070;2023-05-02T12:27:29;99962.75;;;19.43;52.58
63739;BME280;68816;45.558;10.070;2023-05-02T12:29:57;99954.09;;;19.68;53.07
63739;BME280;68816;45.558;10.070;2023-05-02T12:32:27;99956.56;;;19.69;53.81
63739;BME280;68816;45.558;10.070;2023-05-02T12:34:57;99961.25;;;19.55;53.12
63739;BME280;68816;45.558;10.070;2023-05-02T12:37:24;99963.31;;;19.45;53.92
63739;BME280;68816;45.558;10.070;2023-05-02T12:39:50;99961.13;;;19.89;53.31
63739;BME280;68816;45.558;10.070;2023-05-02T12:42:19;99955.47;;;20.37;53.08
63739;BME280;68816;45.558;10.070;2023-05-02T12:44:46;99952.41;;;19.91;51.95
63739;BME280;68816;45.558;10.070;2023-05-02T12:47:15;99954.38;;;20.33;50.18
63739;BME280;68816;45.558;10.070;2023-05-02T12:49:55;99963.47;;;20.81;49.93
63739;BME280;68816;45.558;10.070;2023-05-02T12:52:51;99960.03;;;21.35;49.86
63739;BME280;68816;45.558;10.070;2023-05-02T12:55:24;99948.00;;;21.76;47.87
63739;BME280;68816;45.558;10.070;2023-05-02T12:58:11;99947.09;;;22.43;48.68
63739;BME280;68816;45.558;10.070;2023-05-02T13:00:41;99945.34;;;22.70;48.48
63739;BME280;68816;45.558;10.070;2023-05-02T13:03:08;99945.13;;;22.80;45.27
63739;BME280;68816;45.558;10.070;2023-05-02T13:05:34;99937.69;;;22.84;44.55
63739;BME280;68816;45.558;10.070;2023-05-02T13:08:00;99944.41;;;22.74;45.10
63739;BME280;68816;45.558;10.070;2023-05-02T13:10:26;99941.41;;;22.07;44.36
63739;BME280;68816;45.558;10.070;2023-05-02T13:12:52;99940.38;;;21.49;46.67
63739;BME280;68816;45.558;10.070;2023-05-02T13:15:19;99939.34;;;22.13;45.96
63739;BME280;68816;45.558;10.070;2023-05-02T13:17:45;99945.97;;;22.80;45.25
63739;BME280;68816;45.558;10.070;2023-05-02T13:20:11;99943.97;;;23.03;43.32
63739;BME280;68816;45.558;10.070;2023-05-02T13:22:36;99938.72;;;23.10;45.97
63739;BME280;68816;45.558;10.070;2023-05-02T13:25:03;99934.84;;;23.28;45.91
63739;BME280;68816;45.558;10.070;2023-05-02T13:27:29;99931.44;;;23.40;44.33
63739;BME280;68816;45.558;10.070;2023-05-02T13:29:54;99934.44;;;23.44;42.08
63739;BME280;68816;45.558;10.070;2023-05-02T13:32:20;99923.44;;;23.33;41.93
63739;BME280;68816;45.558;10.070;2023-05-02T13:34:46;99932.53;;;23.53;42.39
63739;BME280;68816;45.558;10.070;2023-05-02T13:37:11;99929.09;;;23.73;43.08
63739;BME280;68816;45.558;10.070;2023-05-02T13:39:37;99925.41;;;24.03;41.45
63739;BME280;68816;45.558;10.070;2023-05-02T13:42:02;99920.22;;;24.05;40.28
63739;BME280;68816;45.558;10.070;2023-05-02T13:44:29;99923.78;;;24.20;39.73
63739;BME280;68816;45.558;10.070;2023-05-02T13:46:54;99918.69;;;24.39;37.88
63739;BME280;68816;45.558;10.070;2023-05-02T13:49:20;99923.00;;;24.62;40.92
63739;BME280;68816;45.558;10.070;2023-05-02T13:51:46;99916.34;;;24.58;40.67